KOGS

Details ICAO KOGS (OGS)
Name OGDENSBURG INTL
Region United States
Timezone America/New_York (UTC-4.0)
Plans Departing 12
Arriving 5
Stats Elevation 297 ft / 91 m (AMSL)
Location 44.681849° -75.465498°
Runways 1
Magnetic Variation 13.149° W
Sunrise 2018-05-27 09:24:12 UTC / 2018-05-27 05:24:12 Local
Sunset 2018-05-28 00:36:46 UTC / 2018-05-27 20:36:46 Local
Advertisement - Login to hide

Runways

ID Width Length Bearing (true) Bearing (mag) Surface Threshold Offset Overrun Length
09 150 ft / 46 m 5,188 ft / 1,581 m 75.96° 89.11° Asphalt 0 ft / 0 m 0 ft / 0 m
27 150 ft / 46 m 5,188 ft / 1,581 m 255.97° 269.12° Asphalt 0 ft / 0 m 0 ft / 0 m

Map

Weather


0- 5 10 15 20 25 30 35+ Temperature / ° C

Clouds and Precipitation
Forecast for 2018-05-28 00:00 UTC. Updated 3 hours ago

Ground ~20,000 ft ~40,000 ft Winds

METAR

KOGS 280135Z AUTO 17006KT 10SM BKN042 20/16 A2997 RMK AO2 T02000162

TAF

Not found

Frequencies

Recorded 118.52 MHz AWOS 3
Unicom 122.80 MHz CTAF/UNICOM
Warning: Do not use this data for real-world aviation or navigation. No guarantee of current accuracy is given.